createdAt,value
2018-07-27T00:01:39.847Z,6.83
2018-07-27T00:04:08.996Z,6.60
2018-07-27T00:06:39.261Z,7.40
2018-07-27T00:09:13.711Z,6.13
2018-07-27T00:11:43.305Z,6.10
2018-07-27T00:14:12.064Z,6.53
2018-07-27T00:16:40.901Z,6.50
2018-07-27T00:19:09.519Z,6.40
2018-07-27T00:21:38.282Z,7.10
2018-07-27T00:24:07.152Z,7.40
2018-07-27T00:26:35.994Z,7.47
2018-07-27T00:29:04.908Z,6.60
2018-07-27T00:31:33.797Z,6.47
2018-07-27T00:34:02.363Z,6.70
2018-07-27T00:36:31.168Z,6.43
2018-07-27T00:39:00.719Z,6.90
2018-07-27T00:41:31.462Z,7.53
2018-07-27T00:44:00.137Z,7.20
2018-07-27T00:46:29.728Z,7.50
2018-07-27T00:48:59.761Z,6.60
2018-07-27T00:51:30.333Z,6.77
2018-07-27T00:53:59.987Z,7.10
2018-07-27T00:56:29.755Z,6.60
2018-07-27T00:58:59.514Z,5.70
2018-07-27T01:01:28.418Z,6.40
2018-07-27T01:03:57.805Z,7.10
2018-07-27T01:06:27.561Z,6.90
2018-07-27T01:08:56.575Z,7.00
2018-07-27T01:11:25.585Z,7.43
2018-07-27T01:13:54.228Z,8.07
2018-07-27T01:16:22.968Z,7.40
2018-07-27T01:18:51.675Z,7.97
2018-07-27T01:21:20.299Z,6.23
2018-07-27T01:23:49.071Z,6.60
2018-07-27T01:26:17.868Z,6.40
2018-07-27T01:28:46.672Z,6.20
2018-07-27T01:31:15.576Z,6.50
2018-07-27T01:33:44.344Z,6.53
2018-07-27T01:36:13.081Z,7.43
2018-07-27T01:38:41.911Z,7.37
2018-07-27T01:41:10.664Z,6.97
2018-07-27T01:43:39.440Z,7.40
2018-07-27T01:46:08.319Z,7.80
2018-07-27T01:48:37.352Z,6.77
2018-07-27T01:51:06.445Z,7.60
2018-07-27T01:53:35.300Z,7.20
2018-07-27T01:56:04.000Z,7.93
2018-07-27T01:58:33.191Z,7.70
2018-07-27T02:01:02.252Z,6.47
2018-07-27T02:03:31.191Z,7.00
2018-07-27T02:05:59.930Z,6.87
2018-07-27T02:08:29.415Z,7.40
2018-07-27T02:10:58.143Z,7.90
2018-07-27T02:13:26.776Z,8.37
2018-07-27T02:15:56.367Z,8.20
2018-07-27T02:18:25.265Z,7.27
2018-07-27T02:20:54.347Z,7.30
2018-07-27T02:23:23.040Z,6.80
2018-07-27T02:25:51.658Z,7.00
2018-07-27T02:28:20.670Z,7.80
2018-07-27T02:30:49.894Z,6.93
2018-07-27T02:33:18.797Z,6.50
2018-07-27T02:35:47.396Z,6.87
2018-07-27T02:38:16.281Z,7.27
2018-07-27T02:40:45.037Z,7.07
2018-07-27T02:43:13.680Z,7.27
2018-07-27T02:45:42.468Z,7.63
2018-07-27T02:48:11.114Z,7.73
2018-07-27T02:50:39.757Z,7.80
2018-07-27T02:53:08.615Z,7.97
2018-07-27T02:55:37.624Z,7.20
2018-07-27T02:58:08.292Z,7.00
2018-07-27T03:00:37.460Z,7.80
2018-07-27T03:03:06.264Z,8.33
2018-07-27T03:05:34.887Z,6.80
2018-07-27T03:08:03.705Z,9.67
2018-07-27T03:10:32.478Z,8.30
2018-07-27T03:13:01.088Z,7.50
2018-07-27T03:15:29.767Z,8.27
2018-07-27T03:17:59.373Z,7.40
2018-07-27T03:20:28.878Z,7.23
2018-07-27T03:22:58.049Z,6.50
2018-07-27T03:25:26.849Z,6.33
2018-07-27T03:27:55.456Z,6.60
2018-07-27T03:30:24.331Z,7.20
2018-07-27T03:32:53.148Z,6.77
2018-07-27T03:35:21.876Z,6.87
2018-07-27T03:37:51.057Z,7.10
2018-07-27T03:40:19.858Z,7.37
2018-07-27T03:42:48.512Z,6.57
2018-07-27T03:45:17.162Z,7.77
2018-07-27T03:47:46.012Z,7.07
2018-07-27T03:50:14.814Z,6.77
2018-07-27T03:52:43.567Z,6.73
2018-07-27T03:55:12.208Z,6.93
2018-07-27T03:57:40.817Z,7.00
2018-07-27T04:00:11.701Z,6.53
2018-07-27T04:02:40.580Z,6.53
2018-07-27T04:05:09.512Z,7.20
2018-07-27T04:07:38.875Z,8.37
2018-07-27T04:10:07.585Z,7.70
2018-07-27T04:12:36.383Z,7.43
2018-07-27T04:15:05.637Z,8.10
2018-07-27T04:17:34.633Z,7.63
2018-07-27T04:20:03.351Z,7.70
2018-07-27T04:22:32.342Z,6.83
2018-07-27T04:25:01.195Z,8.20
2018-07-27T04:27:29.848Z,6.70
2018-07-27T04:29:58.580Z,6.70
2018-07-27T04:32:27.627Z,6.63
2018-07-27T04:34:56.443Z,7.20
2018-07-27T04:37:25.403Z,6.90
2018-07-27T04:39:54.223Z,7.13
2018-07-27T04:42:22.902Z,7.57
2018-07-27T04:44:51.769Z,8.03
2018-07-27T04:47:20.900Z,7.33
2018-07-27T04:49:49.556Z,7.53
2018-07-27T04:52:18.587Z,7.90
2018-07-27T04:54:47.580Z,8.20
2018-07-27T04:57:17.991Z,9.17
2018-07-27T04:59:46.683Z,9.07
2018-07-27T05:02:15.412Z,8.07
2018-07-27T05:04:44.752Z,8.47
2018-07-27T05:07:13.572Z,8.27
2018-07-27T05:09:42.223Z,6.83
2018-07-27T05:12:10.936Z,7.50
2018-07-27T05:14:39.480Z,7.33
2018-07-27T05:17:08.481Z,8.13
2018-07-27T05:19:37.523Z,7.70
2018-07-27T05:22:06.172Z,7.20
2018-07-27T05:24:35.338Z,7.73
2018-07-27T05:27:04.196Z,9.30
2018-07-27T05:29:32.904Z,8.70
2018-07-27T05:32:01.799Z,7.40
2018-07-27T05:34:30.776Z,8.67
2018-07-27T05:36:59.413Z,6.93
2018-07-27T05:39:28.079Z,7.90
2018-07-27T05:41:57.053Z,7.40
2018-07-27T05:44:25.652Z,6.40
2018-07-27T05:46:54.436Z,7.60
2018-07-27T05:49:23.289Z,7.63
2018-07-27T05:51:52.157Z,7.53
2018-07-27T05:54:21.804Z,7.30
2018-07-27T05:56:50.628Z,7.40
2018-07-27T05:59:19.251Z,7.73
2018-07-27T06:01:48.183Z,7.23
2018-07-27T06:04:17.148Z,7.57
2018-07-27T06:06:46.108Z,6.80
2018-07-27T06:09:14.798Z,7.20
2018-07-27T06:11:43.491Z,8.07
2018-07-27T06:14:12.144Z,7.07
2018-07-27T06:16:40.952Z,6.43
2018-07-27T06:19:10.163Z,6.90
2018-07-27T06:21:38.937Z,7.10
2018-07-27T06:24:08.030Z,6.90
2018-07-27T06:26:36.845Z,6.57
2018-07-27T06:29:05.504Z,6.53
2018-07-27T06:31:34.299Z,7.23
2018-07-27T06:34:02.945Z,6.57
2018-07-27T06:36:31.713Z,6.93
2018-07-27T06:39:00.480Z,6.90
2018-07-27T06:41:29.053Z,6.40
2018-07-27T06:43:57.704Z,7.37
2018-07-27T06:46:26.404Z,5.47
2018-07-27T06:48:55.360Z,6.67
2018-07-27T06:51:24.116Z,6.43
2018-07-27T06:53:53.685Z,5.93
2018-07-27T06:56:22.592Z,6.00
2018-07-27T06:58:51.153Z,6.27
2018-07-27T07:01:19.731Z,6.37
2018-07-27T07:03:48.880Z,6.43
2018-07-27T07:06:17.512Z,4.60
2018-07-27T07:08:46.428Z,5.90
2018-07-27T07:11:15.648Z,5.27
2018-07-27T07:13:44.400Z,5.20
2018-07-27T07:16:13.325Z,5.83
2018-07-27T07:18:42.283Z,5.23
2018-07-27T07:21:11.611Z,5.67
2018-07-27T07:23:40.696Z,5.13
2018-07-27T07:26:09.814Z,5.43
2018-07-27T07:28:38.321Z,5.37
2018-07-27T07:31:06.987Z,5.10
2018-07-27T07:33:36.071Z,4.77
2018-07-27T07:36:04.791Z,5.40
2018-07-27T07:38:33.324Z,5.10
2018-07-27T07:41:02.962Z,5.40
2018-07-27T07:43:32.032Z,5.47
2018-07-27T07:46:00.713Z,5.50
2018-07-27T07:48:29.512Z,5.60
2018-07-27T07:50:58.152Z,6.43
2018-07-27T07:53:26.968Z,6.37
2018-07-27T07:55:55.779Z,5.13
2018-07-27T07:58:24.549Z,5.83
2018-07-27T08:00:53.221Z,6.17
2018-07-27T08:03:21.959Z,6.20
2018-07-27T08:05:50.596Z,7.00
2018-07-27T08:08:19.193Z,5.20
2018-07-27T08:10:48.844Z,5.17
2018-07-27T08:13:17.500Z,5.60
2018-07-27T08:15:46.379Z,5.30
2018-07-27T08:18:15.241Z,5.60
2018-07-27T08:20:44.061Z,6.03
2018-07-27T08:23:12.717Z,5.60
2018-07-27T08:26:57.745Z,6.17
2018-07-27T08:29:30.509Z,6.70
2018-07-27T08:31:59.756Z,6.20
2018-07-27T08:34:28.379Z,6.43
2018-07-27T08:36:57.005Z,6.10
2018-07-27T08:39:26.924Z,6.40
2018-07-27T08:41:55.880Z,6.10
2018-07-27T08:44:26.860Z,5.80
2018-07-27T08:46:55.555Z,5.83
2018-07-27T08:49:24.369Z,5.37
2018-07-27T08:51:53.147Z,5.40
2018-07-27T08:54:22.232Z,6.87
2018-07-27T08:56:51.043Z,5.63
2018-07-27T08:59:19.772Z,5.13
2018-07-27T09:01:48.403Z,6.10
2018-07-27T09:04:17.159Z,5.00
2018-07-27T09:06:46.030Z,5.27
2018-07-27T09:09:16.036Z,5.73
2018-07-27T09:11:44.967Z,4.97
2018-07-27T09:14:13.627Z,4.80
2018-07-27T09:16:42.491Z,5.33
2018-07-27T09:19:11.163Z,5.20
2018-07-27T09:21:39.865Z,4.70
2018-07-27T09:24:08.801Z,4.93
2018-07-27T09:26:43.771Z,4.60
2018-07-27T09:29:12.616Z,4.57
2018-07-27T09:31:41.165Z,4.37
2018-07-27T09:34:10.202Z,4.60
2018-07-27T09:36:38.836Z,4.30
2018-07-27T09:39:09.681Z,5.50
2018-07-27T09:41:38.285Z,4.30
2018-07-27T09:44:07.924Z,4.53
2018-07-27T09:46:37.085Z,4.30
2018-07-27T09:49:05.876Z,4.37
2018-07-27T09:51:34.786Z,4.47
2018-07-27T09:54:03.676Z,4.17
2018-07-27T09:56:32.364Z,4.37
2018-07-27T09:59:01.143Z,4.87
2018-07-27T10:01:30.744Z,4.50
2018-07-27T10:03:59.445Z,4.30
2018-07-27T10:06:28.383Z,3.43
2018-07-27T10:08:57.307Z,3.90
2018-07-27T10:11:25.964Z,4.30
2018-07-27T10:13:54.565Z,4.27
2018-07-27T10:16:23.312Z,3.80
2018-07-27T10:18:51.866Z,4.40
2018-07-27T10:21:20.483Z,4.63
2018-07-27T10:23:49.436Z,4.10
2018-07-27T10:26:18.170Z,4.13
2018-07-27T10:28:46.747Z,4.37
2018-07-27T10:31:15.555Z,3.90
2018-07-27T10:33:44.431Z,4.13
2018-07-27T10:36:13.001Z,4.63
2018-07-27T10:38:41.926Z,4.53
2018-07-27T10:41:10.856Z,5.20
2018-07-27T10:43:39.528Z,4.37
2018-07-27T10:46:08.497Z,4.17
2018-07-27T10:48:37.245Z,4.00
2018-07-27T10:51:06.203Z,4.30
2018-07-27T10:53:34.956Z,4.40
2018-07-27T10:56:03.685Z,4.35
2018-07-27T10:58:32.371Z,4.53
2018-07-27T11:01:01.243Z,4.40
2018-07-27T11:03:29.964Z,4.12
2018-07-27T11:05:58.580Z,4.42
2018-07-27T11:08:27.207Z,4.17
2018-07-27T11:10:55.848Z,4.72
2018-07-27T11:13:24.636Z,4.42
2018-07-27T11:15:53.349Z,4.17
2018-07-27T11:18:22.113Z,4.00
2018-07-27T11:20:50.888Z,4.30
2018-07-27T11:23:19.576Z,4.28
2018-07-27T11:25:48.263Z,4.40
2018-07-27T11:28:16.943Z,4.87
2018-07-27T11:30:45.699Z,4.60
2018-07-27T11:33:14.336Z,5.10
2018-07-27T11:35:43.326Z,5.67
2018-07-27T11:38:12.207Z,5.03
2018-07-27T11:40:41.318Z,4.80
2018-07-27T11:43:10.120Z,4.73
2018-07-27T11:45:38.819Z,4.62
2018-07-27T11:48:07.465Z,4.42
2018-07-27T11:50:36.115Z,4.05
2018-07-27T11:53:05.026Z,4.40
2018-07-27T11:55:33.781Z,4.70
2018-07-27T11:58:02.587Z,4.12
2018-07-27T12:00:31.533Z,3.30
2018-07-27T12:03:00.195Z,4.28
2018-07-27T12:05:28.791Z,4.37
2018-07-27T12:07:57.393Z,4.78
2018-07-27T12:10:26.065Z,4.25
2018-07-27T12:12:54.908Z,4.08
2018-07-27T12:15:23.807Z,4.30
2018-07-27T12:17:52.678Z,4.50
2018-07-27T12:20:21.345Z,3.98
2018-07-27T12:22:50.256Z,3.83
2018-07-27T12:25:18.928Z,4.25
2018-07-27T12:27:47.552Z,4.55
2018-07-27T12:30:16.120Z,4.60
2018-07-27T12:32:44.755Z,4.47
2018-07-27T12:35:13.420Z,4.40
2018-07-27T12:37:42.551Z,4.62
2018-07-27T12:40:11.263Z,4.40
2018-07-27T12:42:39.978Z,5.20
2018-07-27T12:45:08.711Z,3.98
2018-07-27T12:47:37.931Z,4.15
2018-07-27T12:50:06.657Z,3.40
2018-07-27T12:52:35.536Z,3.55
2018-07-27T12:55:04.540Z,3.42
2018-07-27T12:57:33.124Z,3.67
2018-07-27T13:00:01.961Z,3.58
2018-07-27T13:02:30.599Z,3.95
2018-07-27T13:04:59.280Z,3.92
2018-07-27T13:07:28.140Z,4.00
2018-07-27T13:10:02.016Z,4.08
2018-07-27T13:12:30.932Z,3.75
2018-07-27T13:15:00.289Z,4.42
2018-07-27T13:17:28.912Z,4.40
2018-07-27T13:19:59.566Z,3.83
2018-07-27T13:22:28.884Z,4.42
2018-07-27T13:24:58.246Z,3.45
2018-07-27T13:27:26.896Z,3.98
2018-07-27T13:29:57.137Z,4.05
2018-07-27T13:32:27.027Z,4.22
2018-07-27T13:34:58.117Z,4.80
2018-07-27T13:37:28.818Z,4.70
2018-07-27T13:39:58.606Z,4.70
2018-07-27T13:42:29.477Z,5.60
2018-07-27T13:44:59.784Z,5.53
2018-07-27T13:47:29.742Z,5.40
2018-07-27T13:49:59.455Z,5.70
2018-07-27T13:52:29.440Z,5.10
2018-07-27T13:54:58.664Z,5.50
2018-07-27T13:57:27.803Z,5.37
2018-07-27T13:59:57.195Z,5.53
2018-07-27T14:02:26.762Z,5.63
2018-07-27T14:04:55.968Z,5.23
2018-07-27T14:07:25.432Z,5.23
2018-07-27T14:09:54.068Z,4.90
2018-07-27T14:12:22.978Z,5.73
2018-07-27T14:14:52.271Z,5.40
2018-07-27T14:17:21.435Z,5.47
2018-07-27T14:19:51.127Z,4.87
2018-07-27T14:22:20.159Z,5.10
2018-07-27T14:24:48.772Z,4.90
2018-07-27T14:27:17.800Z,4.83
2018-07-27T14:29:46.604Z,4.97
2018-07-27T14:32:15.261Z,5.77
2018-07-27T14:34:44.584Z,5.23
2018-07-27T14:37:13.149Z,5.40
2018-07-27T14:39:41.861Z,5.80
2018-07-27T14:42:10.639Z,5.80
2018-07-27T14:44:39.271Z,5.60
2018-07-27T14:47:07.888Z,5.60
2018-07-27T14:49:36.890Z,4.90
2018-07-27T14:52:05.952Z,5.13
2018-07-27T14:54:34.808Z,5.50
2018-07-27T14:57:03.892Z,6.13
2018-07-27T14:59:32.616Z,5.17
2018-07-27T15:02:01.551Z,5.93
2018-07-27T15:04:30.449Z,5.60
2018-07-27T15:06:59.152Z,5.43
2018-07-27T15:09:28.217Z,5.57
2018-07-27T15:11:57.119Z,5.93
2018-07-27T15:14:26.296Z,5.30
2018-07-27T15:16:55.124Z,5.40
2018-07-27T15:19:24.024Z,5.60
2018-07-27T15:21:52.776Z,5.40
2018-07-27T15:24:21.700Z,5.80
2018-07-27T15:26:50.468Z,5.80
2018-07-27T15:29:20.093Z,5.70
2018-07-27T15:31:48.859Z,5.90
2018-07-27T15:34:17.739Z,4.93
2018-07-27T15:36:46.417Z,5.30
2018-07-27T15:39:15.207Z,6.37
2018-07-27T15:41:43.888Z,6.00
2018-07-27T15:44:12.704Z,6.10
2018-07-27T15:46:41.951Z,6.27
2018-07-27T15:49:13.116Z,6.73
2018-07-27T15:51:43.358Z,5.83
2018-07-27T15:54:12.151Z,6.27
2018-07-27T15:56:41.353Z,5.93
2018-07-27T15:59:10.331Z,6.40
2018-07-27T16:01:39.337Z,6.43
2018-07-27T16:04:08.544Z,6.40
2018-07-27T16:06:37.283Z,6.97
2018-07-27T16:09:08.460Z,6.70
2018-07-27T16:11:37.306Z,6.43
2018-07-27T16:14:06.105Z,6.53
2018-07-27T16:16:35.043Z,6.50
2018-07-27T16:19:03.932Z,6.30
2018-07-27T16:21:32.696Z,5.97
2018-07-27T16:24:02.168Z,6.67
2018-07-27T16:26:30.992Z,6.90
2018-07-27T16:28:59.644Z,5.90
2018-07-27T16:31:28.495Z,6.20
2018-07-27T16:33:57.647Z,6.33
2018-07-27T16:36:26.220Z,5.67
2018-07-27T16:38:55.248Z,6.67
2018-07-27T16:41:24.015Z,6.93
2018-07-27T16:43:52.582Z,6.93
2018-07-27T16:46:21.449Z,7.13
2018-07-27T16:48:50.791Z,6.43
2018-07-27T16:51:20.238Z,6.50
2018-07-27T16:53:49.320Z,7.47
2018-07-27T16:56:18.068Z,6.10
2018-07-27T16:58:46.867Z,6.23
2018-07-27T17:01:16.315Z,6.83
2018-07-27T17:03:45.131Z,6.10
2018-07-27T17:06:13.842Z,6.37
2018-07-27T17:08:42.671Z,6.93
2018-07-27T17:11:11.523Z,7.30
2018-07-27T17:13:40.721Z,5.97
2018-07-27T17:16:09.436Z,6.60
2018-07-27T17:18:38.398Z,6.40
2018-07-27T17:21:07.387Z,7.07
2018-07-27T17:23:36.425Z,6.37
2018-07-27T17:26:05.267Z,7.00
2018-07-27T17:28:34.115Z,7.00
2018-07-27T17:31:03.192Z,7.00
2018-07-27T17:33:32.261Z,6.67
2018-07-27T17:36:01.025Z,6.63
2018-07-27T17:38:30.056Z,6.70
2018-07-27T17:40:59.616Z,6.63
2018-07-27T17:43:28.738Z,6.93
2018-07-27T17:45:57.472Z,6.07
2018-07-27T17:48:26.221Z,6.80
2018-07-27T17:50:55.337Z,7.23
2018-07-27T17:53:24.008Z,7.40
2018-07-27T17:55:53.688Z,7.37
2018-07-27T17:58:22.811Z,6.23
2018-07-27T18:00:51.932Z,7.70
2018-07-27T18:03:20.559Z,7.30
2018-07-27T18:05:49.680Z,6.30
2018-07-27T18:08:18.623Z,6.60
2018-07-27T18:10:47.349Z,7.50
2018-07-27T18:13:16.169Z,7.00
2018-07-27T18:15:44.846Z,7.07
2018-07-27T18:18:13.656Z,5.80
2018-07-27T18:20:42.444Z,6.30
2018-07-27T18:23:11.251Z,6.70
2018-07-27T18:25:39.972Z,6.67
2018-07-27T18:28:08.543Z,7.17
2018-07-27T18:30:37.644Z,6.37
2018-07-27T18:33:06.737Z,5.37
2018-07-27T18:35:35.657Z,6.00
2018-07-27T18:38:04.668Z,6.10
2018-07-27T18:40:33.416Z,5.17
2018-07-27T18:43:02.012Z,6.77
2018-07-27T18:45:30.820Z,5.93
2018-07-27T18:47:59.601Z,6.30
2018-07-27T18:50:28.471Z,5.83
2018-07-27T18:52:57.599Z,6.63
2018-07-27T18:55:26.421Z,7.43
2018-07-27T18:57:55.214Z,7.70
2018-07-27T19:00:23.851Z,7.93
2018-07-27T19:02:52.567Z,7.37
2018-07-27T19:05:21.436Z,7.17
2018-07-27T19:07:50.012Z,6.60
2018-07-27T19:10:18.926Z,6.47
2018-07-27T19:12:47.873Z,6.67
2018-07-27T19:15:17.011Z,6.70
2018-07-27T19:17:45.872Z,6.90
2018-07-27T19:20:14.801Z,6.53
2018-07-27T19:22:43.712Z,5.70
2018-07-27T19:25:12.540Z,6.60
2018-07-27T19:27:41.205Z,7.40
2018-07-27T19:30:11.683Z,6.60
2018-07-27T19:32:40.424Z,7.17
2018-07-27T19:35:09.206Z,6.50
2018-07-27T19:37:38.212Z,6.70
2018-07-27T19:40:07.297Z,6.50
2018-07-27T19:42:36.334Z,6.53
2018-07-27T19:45:06.148Z,6.50
2018-07-27T19:47:35.074Z,6.03
2018-07-27T19:50:04.058Z,7.30
2018-07-27T19:52:32.755Z,7.30
2018-07-27T19:55:01.484Z,7.10
2018-07-27T19:57:30.352Z,7.23
2018-07-27T19:59:59.295Z,6.07
2018-07-27T20:02:28.124Z,6.33
2018-07-27T20:04:56.731Z,7.70
2018-07-27T20:07:25.748Z,7.90
2018-07-27T20:09:54.383Z,9.10
2018-07-27T20:12:23.123Z,7.80
2018-07-27T20:14:52.238Z,7.50
2018-07-27T20:17:21.028Z,7.77
2018-07-27T20:19:49.709Z,6.87
2018-07-27T20:22:18.404Z,7.60
2018-07-27T20:24:47.333Z,7.10
2018-07-27T20:27:16.149Z,7.07
2018-07-27T20:29:45.259Z,6.97
2018-07-27T20:32:14.143Z,6.97
2018-07-27T20:34:43.432Z,7.43
2018-07-27T20:37:12.528Z,6.90
2018-07-27T20:39:41.331Z,7.50
2018-07-27T20:42:10.068Z,7.90
2018-07-27T20:44:39.134Z,7.47
2018-07-27T20:47:07.861Z,7.63
2018-07-27T20:49:36.551Z,8.17
2018-07-27T20:52:05.294Z,7.50
2018-07-27T20:54:34.320Z,6.93
2018-07-27T20:57:03.060Z,6.83
2018-07-27T20:59:32.014Z,5.90
2018-07-27T21:02:00.907Z,6.50
2018-07-27T21:04:29.548Z,6.20
2018-07-27T21:06:58.118Z,6.23
2018-07-27T21:09:26.804Z,7.43
2018-07-27T21:11:55.808Z,7.73
2018-07-27T21:14:24.679Z,6.03
2018-07-27T21:16:53.379Z,7.80
2018-07-27T21:19:22.134Z,7.07
2018-07-27T21:21:50.999Z,7.03
2018-07-27T21:24:19.667Z,7.17
2018-07-27T21:26:48.341Z,7.60
2018-07-27T21:29:17.139Z,7.43
2018-07-27T21:31:45.909Z,6.60
2018-07-27T21:34:15.032Z,6.30
2018-07-27T21:36:43.775Z,7.63
2018-07-27T21:39:13.880Z,7.07
2018-07-27T21:41:42.989Z,6.57
2018-07-27T21:44:11.943Z,6.50
2018-07-27T21:46:40.741Z,6.37
2018-07-27T21:49:09.455Z,6.80
2018-07-27T21:51:38.203Z,6.93
2018-07-27T21:54:06.889Z,7.30
2018-07-27T21:56:35.915Z,7.13
2018-07-27T21:59:04.676Z,7.43
2018-07-27T22:01:33.509Z,7.90
2018-07-27T22:04:02.712Z,6.50
2018-07-27T22:06:31.583Z,7.60
2018-07-27T22:09:00.461Z,7.33
2018-07-27T22:11:29.032Z,7.07
2018-07-27T22:13:57.661Z,7.10
2018-07-27T22:16:26.500Z,7.40
2018-07-27T22:18:56.055Z,6.97
2018-07-27T22:21:24.669Z,6.80
2018-07-27T22:23:53.500Z,7.40
2018-07-27T22:26:22.548Z,7.13
2018-07-27T22:28:51.869Z,7.90
2018-07-27T22:31:20.610Z,7.80
2018-07-27T22:33:49.487Z,6.90
2018-07-27T22:36:18.532Z,7.50
2018-07-27T22:38:47.496Z,8.30
2018-07-27T22:41:16.248Z,7.20
2018-07-27T22:43:45.131Z,7.10
2018-07-27T22:46:13.844Z,6.77
2018-07-27T22:48:42.499Z,7.30
2018-07-27T22:51:11.159Z,7.67
2018-07-27T22:53:39.849Z,8.57
2018-07-27T22:56:08.772Z,7.47
2018-07-27T22:58:37.643Z,8.33
2018-07-27T23:01:06.266Z,6.90
2018-07-27T23:03:35.145Z,7.70
2018-07-27T23:06:04.060Z,6.90
2018-07-27T23:08:32.701Z,7.93
2018-07-27T23:11:01.637Z,8.87
2018-07-27T23:13:30.259Z,8.30
2018-07-27T23:15:58.947Z,8.50
2018-07-27T23:18:28.076Z,7.77
2018-07-27T23:20:56.656Z,8.30
2018-07-27T23:23:25.599Z,7.67
2018-07-27T23:25:54.320Z,7.57
2018-07-27T23:28:23.121Z,8.40
2018-07-27T23:30:51.979Z,8.70
2018-07-27T23:33:20.914Z,8.40
2018-07-27T23:35:49.707Z,8.40
2018-07-27T23:38:18.361Z,9.10
2018-07-27T23:40:48.011Z,7.57
2018-07-27T23:43:16.643Z,8.97
2018-07-27T23:45:45.211Z,8.40
2018-07-27T23:48:14.316Z,8.50
2018-07-27T23:50:44.220Z,8.60
2018-07-27T23:53:13.064Z,10.33
2018-07-27T23:55:41.829Z,7.67
2018-07-27T23:58:10.640Z,8.73
